Royal Melbourne — WDC2865 — position and weather

sailwx.info

Track history (hours):
 
Tides and Currents Weather Stations Pressure Air Temp Water Temp Dewpoint Dewpoint Depression Visibility Wind Speed Wind Dir Waves Ship Positions

Royal Melbourne

Owner: Harley Marine Services, Inc, Seattle, WA. More information available from US FCC via Universal Licensing System and Coast Guard Vessel Documentation Center.

Last reported at 2017-Mar-27 04:28 UTC. Time now 2017-Mar-27 04:52 UTC.
Position N 37°55' W 122°22'.

Length 30 m; draft 2 m.

Type: Tug. MMSI: 366998830.

Date/timePositionNaut miles runAvg speedWind from/ knotsBaromVisibWave heightAir tempDewpointWater temp
2017-Mar-27 04:28N 37°55' W 122°22'0 0.0
2017-Mar-27 03:31N 37°55' W 122°22'0 0.0
2017-Mar-27 02:13N 37°55' W 122°22'0 0.0
2017-Mar-27 01:25N 37°55' W 122°22'0 0.0
2017-Mar-27 00:28N 37°55' W 122°22'0 0.0
2017-Mar-26 22:28N 37°55' W 122°22'0 0.0
2017-Mar-26 21:31N 37°55' W 122°22'0 0.0
2017-Mar-26 20:31N 37°55' W 122°22'0 0.0
2017-Mar-26 19:13N 37°55' W 122°22'0 0.0
2017-Mar-26 18:31N 37°55' W 122°22'0 0.0
2017-Mar-26 17:31N 37°55' W 122°22'0 0.0
2017-Mar-26 16:31N 37°55' W 122°22'0 0.0
2017-Mar-26 15:31N 37°55' W 122°22'0 0.0
2017-Mar-26 14:31N 37°55' W 122°22'0 0.0
2017-Mar-26 13:31N 37°55' W 122°22'0 0.0
2017-Mar-26 12:28N 37°55' W 122°22'0 0.0
2017-Mar-26 11:19N 37°55' W 122°22'0 0.0
2017-Mar-26 10:31N 37°55' W 122°22'0 0.0
2017-Mar-26 09:31N 37°55' W 122°22'0 0.0
2017-Mar-26 08:25N 37°55' W 122°22'0 0.0
2017-Mar-26 07:31N 37°55' W 122°22'0 0.0
2017-Mar-26 06:31N 37°55' W 122°22'0 0.0
2017-Mar-26 05:31N 37°55' W 122°22'0 0.0
2017-Mar-26 04:33N 37°55' W 122°22'0 0.0
2017-Mar-26 03:30N 37°55' W 122°22'1 0.9
2017-Mar-26 02:33N 37°54' W 122°22'6 6.0
2017-Mar-26 01:34N 37°48' W 122°24'0 0.1
2017-Mar-26 00:32N 37°48' W 122°24'0 0.0
2017-Mar-25 23:32N 37°48' W 122°24'0 0.0
2017-Mar-25 22:32N 37°48' W 122°24'0 0.0
2017-Mar-25 21:20N 37°48' W 122°24'0 0.0
2017-Mar-25 20:32N 37°48' W 122°24'0 0.1
2017-Mar-25 19:33N 37°48' W 122°24'1 0.5
2017-Mar-25 18:33N 37°48' W 122°23'1 0.9
2017-Mar-25 17:33N 37°48' W 122°22'4 4.1
2017-Mar-25 16:33N 37°48' W 122°17'0 0.0
2017-Mar-25 15:33N 37°48' W 122°17'0 0.0
2017-Mar-25 14:33N 37°48' W 122°17'0 0.0
2017-Mar-25 13:33N 37°48' W 122°17'0 0.0
2017-Mar-25 12:30N 37°48' W 122°17'0 0.0
2017-Mar-25 11:33N 37°48' W 122°17'0 0.0
2017-Mar-25 10:33N 37°48' W 122°17'0 0.0
2017-Mar-25 09:33N 37°48' W 122°17'0 0.0
2017-Mar-25 08:33N 37°48' W 122°17'0 0.0
2017-Mar-25 07:33N 37°48' W 122°17'0 0.0
2017-Mar-25 06:33N 37°48' W 122°17'0 0.0
2017-Mar-25 05:33N 37°48' W 122°17'0 0.0
2017-Mar-25 04:32N 37°48' W 122°17'0 0.0
2017-Mar-25 03:32N 37°48' W 122°17'0 0.0
2017-Mar-25 02:32N 37°48' W 122°17'0 0.0
2017-Mar-25 01:33N 37°48' W 122°17'0 0.0
2017-Mar-25 00:32N 37°48' W 122°17'0 0.0
2017-Mar-24 23:32N 37°48' W 122°17'0 0.0
2017-Mar-24 22:32N 37°48' W 122°17'0 0.0
2017-Mar-24 21:32N 37°48' W 122°17'0 0.0
2017-Mar-24 20:32N 37°48' W 122°17'0 0.0
2017-Mar-24 19:32N 37°48' W 122°17'0 0.0
2017-Mar-24 18:32N 37°48' W 122°17'0 0.0
2017-Mar-24 17:32N 37°48' W 122°17'0 0.0
2017-Mar-24 16:32N 37°48' W 122°17'0 0.0
2017-Mar-24 15:32N 37°48' W 122°17'0 0.0
2017-Mar-24 14:32N 37°48' W 122°17'0 0.0
2017-Mar-24 13:32N 37°48' W 122°17'0 0.0
2017-Mar-24 12:32N 37°48' W 122°17'0 0.0
2017-Mar-24 11:32N 37°48' W 122°17'0 0.0
2017-Mar-24 10:32N 37°48' W 122°17'0 0.0
2017-Mar-24 09:29N 37°48' W 122°17'0 0.0
2017-Mar-24 08:32N 37°48' W 122°17'0 0.0
2017-Mar-24 07:32N 37°48' W 122°17'0 0.0
2017-Mar-24 06:32N 37°48' W 122°17'0 0.0
2017-Mar-24 05:32N 37°48' W 122°17'0 0.1
2017-Mar-24 04:32N 37°48' W 122°17'0 0.1
2017-Mar-24 03:32N 37°48' W 122°17'0 0.0
2017-Mar-24 02:32N 37°48' W 122°17'0 0.0
2017-Mar-24 01:32N 37°48' W 122°17'0 0.0
2017-Mar-24 00:32N 37°48' W 122°17'0 0.0
2017-Mar-23 23:32N 37°48' W 122°17'0 0.0
2017-Mar-23 22:29N 37°48' W 122°17'0 0.0
2017-Mar-23 21:32N 37°48' W 122°17'0 0.0
2017-Mar-23 20:32N 37°48' W 122°17'0 0.0
2017-Mar-23 19:31N 37°48' W 122°17'0 0.0
2017-Mar-23 18:31N 37°48' W 122°17'0 0.0
2017-Mar-23 17:28N 37°48' W 122°17'0 0.0
2017-Mar-23 16:32N 37°48' W 122°17'0 0.0
2017-Mar-23 15:31N 37°48' W 122°17'0 0.0
2017-Mar-23 14:28N 37°48' W 122°17'0 0.0
2017-Mar-23 13:31N 37°48' W 122°17'0 0.0
2017-Mar-23 12:28N 37°48' W 122°17'0 0.0
2017-Mar-23 11:31N 37°48' W 122°17'0 0.0
2017-Mar-23 10:31N 37°48' W 122°17'0 0.0
2017-Mar-23 09:31N 37°48' W 122°17'0 0.0
2017-Mar-23 08:31N 37°48' W 122°17'0 0.0
2017-Mar-23 07:31N 37°48' W 122°17'0 0.0
2017-Mar-23 06:31N 37°48' W 122°17'0 0.0
2017-Mar-23 05:31N 37°48' W 122°17'0 0.0
2017-Mar-23 04:31N 37°48' W 122°17'0 0.0
2017-Mar-23 03:31N 37°48' W 122°17'0 0.0
2017-Mar-23 02:31N 37°48' W 122°17'0 0.0
2017-Mar-23 01:31N 37°48' W 122°17'0 0.0
2017-Mar-23 00:31N 37°48' W 122°17'0 0.0
2017-Mar-22 23:31N 37°48' W 122°17'0 0.0
2017-Mar-22 22:31N 37°48' W 122°17'0 0.0
2017-Mar-22 21:31N 37°48' W 122°17'0 0.0
2017-Mar-22 20:31N 37°48' W 122°17'0 0.0
2017-Mar-22 19:31N 37°48' W 122°17'4 4.4
2017-Mar-22 18:33N 37°50' W 122°22'5 5.5
2017-Mar-22 17:33N 37°55' W 122°22'0 0.0
2017-Mar-22 16:33N 37°55' W 122°22'0 0.4
2017-Mar-22 15:33N 37°55' W 122°22'6 6.1
2017-Mar-22 14:33N 37°49' W 122°21'3 3.2
2017-Mar-22 13:31N 37°48' W 122°17'0 0.0
2017-Mar-22 12:31N 37°48' W 122°17'0 0.0
2017-Mar-22 11:31N 37°48' W 122°17'0 0.0
2017-Mar-22 10:31N 37°48' W 122°17'0 0.0
2017-Mar-22 09:31N 37°48' W 122°17'0 0.1
2017-Mar-22 08:31N 37°48' W 122°17'0 0.1
2017-Mar-22 07:31N 37°48' W 122°17'0 0.0
2017-Mar-22 06:31N 37°48' W 122°17'0 0.0
2017-Mar-22 05:31N 37°48' W 122°17'0 0.0
2017-Mar-22 04:31N 37°48' W 122°17'0 0.0
2017-Mar-22 03:31N 37°48' W 122°17'0 0.0
2017-Mar-22 02:25N 37°48' W 122°17'0 0.0
2017-Mar-22 01:34N 37°48' W 122°17'0 0.0
2017-Mar-22 00:34N 37°48' W 122°17'0 0.0
2017-Mar-21 23:33N 37°48' W 122°17'0 0.0
2017-Mar-21 22:33N 37°48' W 122°17'0 0.0
2017-Mar-21 21:33N 37°48' W 122°17'0 0.0
2017-Mar-21 20:33N 37°48' W 122°17'0 0.0
2017-Mar-21 19:33N 37°48' W 122°17'0 0.0
2017-Mar-21 18:33N 37°48' W 122°17'0 0.0
2017-Mar-21 17:30N 37°48' W 122°17'0 0.0
2017-Mar-21 16:33N 37°48' W 122°17'0 0.0
2017-Mar-21 15:30N 37°48' W 122°17'0 0.0
2017-Mar-21 14:33N 37°48' W 122°17'0 0.0
2017-Mar-21 13:33N 37°48' W 122°17'0 0.0
2017-Mar-21 12:33N 37°48' W 122°17'0 0.0
2017-Mar-21 11:33N 37°48' W 122°17'0 0.0
2017-Mar-21 10:33N 37°48' W 122°17'0 0.0
2017-Mar-21 09:33N 37°48' W 122°17'0 0.0
2017-Mar-21 08:33N 37°48' W 122°17'0 0.0
2017-Mar-21 07:33N 37°48' W 122°17'0 0.0
2017-Mar-21 06:33N 37°48' W 122°17'0 0.0
2017-Mar-21 05:33N 37°48' W 122°17'0 0.0
2017-Mar-21 04:33N 37°48' W 122°17'0 0.0
2017-Mar-21 03:33N 37°48' W 122°17'0 0.0
2017-Mar-21 02:33N 37°48' W 122°17'0 0.0
2017-Mar-21 01:33N 37°48' W 122°17'0 0.0
2017-Mar-21 00:33N 37°48' W 122°17'0 0.0
2017-Mar-20 23:33N 37°48' W 122°17'0 0.0
2017-Mar-20 22:33N 37°48' W 122°17'0 0.0
2017-Mar-20 21:33N 37°48' W 122°17'0 0.0
2017-Mar-20 20:33N 37°48' W 122°17'0 0.0
2017-Mar-20 19:33N 37°48' W 122°17'0 0.0
2017-Mar-20 18:33N 37°48' W 122°17'0 0.0
2017-Mar-20 17:33N 37°48' W 122°17'0 0.0
2017-Mar-20 16:33N 37°48' W 122°17'0 0.0
2017-Mar-20 15:33N 37°48' W 122°17'0 0.0
2017-Mar-20 14:33N 37°48' W 122°17'0 0.0
2017-Mar-20 13:32N 37°48' W 122°17'0 0.0
2017-Mar-20 12:32N 37°48' W 122°17'2 2.5
2017-Mar-20 11:33N 37°48' W 122°20'2 2.2
2017-Mar-20 10:33N 37°46' W 122°21'0 0.0
2017-Mar-20 09:33N 37°46' W 122°21'0 0.2
2017-Mar-20 08:33N 37°46' W 122°21'0 0.1
2017-Mar-20 07:33N 37°46' W 122°22'0 0.0
2017-Mar-20 06:34N 37°46' W 122°22'1 0.6
2017-Mar-20 05:33N 37°47' W 122°22'4 3.5
2017-Mar-20 04:31N 37°48' W 122°17'0 0.0
2017-Mar-20 03:31N 37°48' W 122°17'0 0.0
2017-Mar-20 02:31N 37°48' W 122°17'0 0.0
2017-Mar-20 01:31N 37°48' W 122°17'0 0.0
2017-Mar-20 00:31N 37°48' W 122°17'0 0.0
2017-Mar-19 23:31N 37°48' W 122°17'0 0.0
2017-Mar-19 22:31N 37°48' W 122°17'0 0.0
2017-Mar-19 21:31N 37°48' W 122°17'0 0.0
2017-Mar-19 20:31N 37°48' W 122°17'0 0.0
2017-Mar-19 19:34N 37°48' W 122°17'0 0.0
2017-Mar-19 18:31N 37°48' W 122°17'0 0.0
2017-Mar-19 17:31N 37°48' W 122°17'0 0.0
2017-Mar-19 16:33N 37°48' W 122°17'0 0.0
2017-Mar-19 15:33N 37°48' W 122°17'0 0.0
2017-Mar-19 14:33N 37°48' W 122°17'0 0.0
2017-Mar-19 13:33N 37°48' W 122°17'0 0.0
2017-Mar-19 12:33N 37°48' W 122°17'0 0.0
2017-Mar-19 11:33N 37°48' W 122°17'0 0.0
2017-Mar-19 10:33N 37°48' W 122°17'0 0.0
2017-Mar-19 09:33N 37°48' W 122°17'0 0.0
2017-Mar-19 08:33N 37°48' W 122°17'0 0.0
2017-Mar-19 07:33N 37°48' W 122°17'0 0.0
2017-Mar-19 06:33N 37°48' W 122°17'0 0.0
2017-Mar-19 05:33N 37°48' W 122°17'0 0.0
2017-Mar-19 04:33N 37°48' W 122°17'0 0.0
2017-Mar-19 03:33N 37°48' W 122°17'0 0.0
2017-Mar-19 02:33N 37°48' W 122°17'0 0.0
2017-Mar-19 01:33N 37°48' W 122°17'0 0.0
2017-Mar-19 00:33N 37°48' W 122°17'0 0.0
2017-Mar-18 23:33N 37°48' W 122°17'0 0.0
2017-Mar-18 22:33N 37°48' W 122°17'0 0.0
2017-Mar-18 21:30N 37°48' W 122°17'0 0.0
2017-Mar-18 20:33N 37°48' W 122°17'0 0.0
2017-Mar-18 19:33N 37°48' W 122°17'0 0.0
2017-Mar-18 18:33N 37°48' W 122°17'0 0.0
2017-Mar-18 17:33N 37°48' W 122°17'0 0.0
2017-Mar-18 16:33N 37°48' W 122°17'0 0.0
2017-Mar-18 15:33N 37°48' W 122°17'0 0.0
2017-Mar-18 14:33N 37°48' W 122°17'0 0.0
2017-Mar-18 13:33N 37°48' W 122°17'0 0.0
2017-Mar-18 12:33N 37°48' W 122°17'0 0.0
2017-Mar-18 11:33N 37°48' W 122°17'0 0.0
2017-Mar-18 10:33N 37°48' W 122°17'0 0.0
2017-Mar-18 09:32N 37°48' W 122°17'0 0.0
2017-Mar-18 08:33N 37°48' W 122°17'0 0.0
2017-Mar-18 07:32N 37°48' W 122°17'0 0.0
2017-Mar-18 06:32N 37°48' W 122°17'0 0.0
2017-Mar-18 05:32N 37°48' W 122°17'0 0.0
2017-Mar-18 04:32N 37°48' W 122°17'0 0.0
2017-Mar-18 03:32N 37°48' W 122°17'0 0.0
2017-Mar-18 02:32N 37°48' W 122°17'0 0.0
2017-Mar-18 01:32N 37°48' W 122°17'0 0.0
2017-Mar-18 00:32N 37°48' W 122°17'0 0.0
2017-Mar-17 23:32N 37°48' W 122°17'0 0.0
2017-Mar-17 22:32N 37°48' W 122°17'0 0.0
2017-Mar-17 21:32N 37°48' W 122°17'0 0.0
2017-Mar-17 20:32N 37°48' W 122°17'0 0.0
2017-Mar-17 19:32N 37°48' W 122°17'0 0.1
2017-Mar-17 18:33N 37°48' W 122°17'7 7.1
2017-Mar-17 17:34N 37°52' W 122°24'9 9.3
2017-Mar-17 16:33N 38°01' W 122°23'6 5.9
2017-Mar-17 15:33N 38°03' W 122°16'0 0.0
2017-Mar-17 14:33N 38°03' W 122°16'0 0.0
2017-Mar-17 13:33N 38°03' W 122°16'0 0.0
2017-Mar-17 12:33N 38°03' W 122°16'0 0.0
2017-Mar-17 11:33N 38°03' W 122°16'0 0.0
2017-Mar-17 10:33N 38°03' W 122°16'0 0.0
2017-Mar-17 09:33N 38°03' W 122°16'0 0.0
2017-Mar-17 08:33N 38°03' W 122°16'0 0.0
2017-Mar-17 07:33N 38°03' W 122°16'0 0.0
2017-Mar-17 06:33N 38°03' W 122°16'0 0.0
2017-Mar-17 05:33N 38°03' W 122°16'0 0.0
2017-Mar-17 04:33N 38°03' W 122°16'  
Track history (hours):
 
Tides and Currents Weather Stations Pressure Air Temp Water Temp Dewpoint Dewpoint Depression Visibility Wind Speed Wind Dir Waves Ship Positions

Royal Melbourne

Owner: Harley Marine Services, Inc, Seattle, WA. More information available from US FCC via Universal Licensing System and Coast Guard Vessel Documentation Center.

Last reported at 2017-Mar-27 04:28 UTC. Time now 2017-Mar-27 04:52 UTC.
Position N 37°55' W 122°22'.

Length 30 m; draft 2 m.

Type: Tug. MMSI: 366998830.

Date/timePositionNaut miles runAvg speedWind from/ knotsBaromVisibWave heightAir tempDewpointWater temp
2017-Mar-27 04:28N 37°55' W 122°22'0 0.0
2017-Mar-27 03:31N 37°55' W 122°22'0 0.0
2017-Mar-27 02:13N 37°55' W 122°22'0 0.0
2017-Mar-27 01:25N 37°55' W 122°22'0 0.0
2017-Mar-27 00:28N 37°55' W 122°22'0 0.0
2017-Mar-26 22:28N 37°55' W 122°22'0 0.0
2017-Mar-26 21:31N 37°55' W 122°22'0 0.0
2017-Mar-26 20:31N 37°55' W 122°22'0 0.0
2017-Mar-26 19:13N 37°55' W 122°22'0 0.0
2017-Mar-26 18:31N 37°55' W 122°22'0 0.0
2017-Mar-26 17:31N 37°55' W 122°22'0 0.0
2017-Mar-26 16:31N 37°55' W 122°22'0 0.0
2017-Mar-26 15:31N 37°55' W 122°22'0 0.0
2017-Mar-26 14:31N 37°55' W 122°22'0 0.0
2017-Mar-26 13:31N 37°55' W 122°22'0 0.0
2017-Mar-26 12:28N 37°55' W 122°22'0 0.0
2017-Mar-26 11:19N 37°55' W 122°22'0 0.0
2017-Mar-26 10:31N 37°55' W 122°22'0 0.0
2017-Mar-26 09:31N 37°55' W 122°22'0 0.0
2017-Mar-26 08:25N 37°55' W 122°22'0 0.0
2017-Mar-26 07:31N 37°55' W 122°22'0 0.0
2017-Mar-26 06:31N 37°55' W 122°22'0 0.0
2017-Mar-26 05:31N 37°55' W 122°22'0 0.0
2017-Mar-26 04:33N 37°55' W 122°22'0 0.0
2017-Mar-26 03:30N 37°55' W 122°22'1 0.9
2017-Mar-26 02:33N 37°54' W 122°22'6 6.0
2017-Mar-26 01:34N 37°48' W 122°24'0 0.1
2017-Mar-26 00:32N 37°48' W 122°24'0 0.0
2017-Mar-25 23:32N 37°48' W 122°24'0 0.0
2017-Mar-25 22:32N 37°48' W 122°24'0 0.0
2017-Mar-25 21:20N 37°48' W 122°24'0 0.0
2017-Mar-25 20:32N 37°48' W 122°24'0 0.1
2017-Mar-25 19:33N 37°48' W 122°24'1 0.5
2017-Mar-25 18:33N 37°48' W 122°23'1 0.9
2017-Mar-25 17:33N 37°48' W 122°22'4 4.1
2017-Mar-25 16:33N 37°48' W 122°17'0 0.0
2017-Mar-25 15:33N 37°48' W 122°17'0 0.0
2017-Mar-25 14:33N 37°48' W 122°17'0 0.0
2017-Mar-25 13:33N 37°48' W 122°17'0 0.0
2017-Mar-25 12:30N 37°48' W 122°17'0 0.0
2017-Mar-25 11:33N 37°48' W 122°17'0 0.0
2017-Mar-25 10:33N 37°48' W 122°17'0 0.0
2017-Mar-25 09:33N 37°48' W 122°17'0 0.0
2017-Mar-25 08:33N 37°48' W 122°17'0 0.0
2017-Mar-25 07:33N 37°48' W 122°17'0 0.0
2017-Mar-25 06:33N 37°48' W 122°17'0 0.0
2017-Mar-25 05:33N 37°48' W 122°17'0 0.0
2017-Mar-25 04:32N 37°48' W 122°17'0 0.0
2017-Mar-25 03:32N 37°48' W 122°17'0 0.0
2017-Mar-25 02:32N 37°48' W 122°17'0 0.0
2017-Mar-25 01:33N 37°48' W 122°17'0 0.0
2017-Mar-25 00:32N 37°48' W 122°17'0 0.0
2017-Mar-24 23:32N 37°48' W 122°17'0 0.0
2017-Mar-24 22:32N 37°48' W 122°17'0 0.0
2017-Mar-24 21:32N 37°48' W 122°17'0 0.0
2017-Mar-24 20:32N 37°48' W 122°17'0 0.0
2017-Mar-24 19:32N 37°48' W 122°17'0 0.0
2017-Mar-24 18:32N 37°48' W 122°17'0 0.0
2017-Mar-24 17:32N 37°48' W 122°17'0 0.0
2017-Mar-24 16:32N 37°48' W 122°17'0 0.0
2017-Mar-24 15:32N 37°48' W 122°17'0 0.0
2017-Mar-24 14:32N 37°48' W 122°17'0 0.0
2017-Mar-24 13:32N 37°48' W 122°17'0 0.0
2017-Mar-24 12:32N 37°48' W 122°17'0 0.0
2017-Mar-24 11:32N 37°48' W 122°17'0 0.0
2017-Mar-24 10:32N 37°48' W 122°17'0 0.0
2017-Mar-24 09:29N 37°48' W 122°17'0 0.0
2017-Mar-24 08:32N 37°48' W 122°17'0 0.0
2017-Mar-24 07:32N 37°48' W 122°17'0 0.0
2017-Mar-24 06:32N 37°48' W 122°17'0 0.0
2017-Mar-24 05:32N 37°48' W 122°17'0 0.1
2017-Mar-24 04:32N 37°48' W 122°17'0 0.1
2017-Mar-24 03:32N 37°48' W 122°17'0 0.0
2017-Mar-24 02:32N 37°48' W 122°17'0 0.0
2017-Mar-24 01:32N 37°48' W 122°17'0 0.0
2017-Mar-24 00:32N 37°48' W 122°17'0 0.0
2017-Mar-23 23:32N 37°48' W 122°17'0 0.0
2017-Mar-23 22:29N 37°48' W 122°17'0 0.0
2017-Mar-23 21:32N 37°48' W 122°17'0 0.0
2017-Mar-23 20:32N 37°48' W 122°17'0 0.0
2017-Mar-23 19:31N 37°48' W 122°17'0 0.0
2017-Mar-23 18:31N 37°48' W 122°17'0 0.0
2017-Mar-23 17:28N 37°48' W 122°17'0 0.0
2017-Mar-23 16:32N 37°48' W 122°17'0 0.0
2017-Mar-23 15:31N 37°48' W 122°17'0 0.0
2017-Mar-23 14:28N 37°48' W 122°17'0 0.0
2017-Mar-23 13:31N 37°48' W 122°17'0 0.0
2017-Mar-23 12:28N 37°48' W 122°17'0 0.0
2017-Mar-23 11:31N 37°48' W 122°17'0 0.0
2017-Mar-23 10:31N 37°48' W 122°17'0 0.0
2017-Mar-23 09:31N 37°48' W 122°17'0 0.0
2017-Mar-23 08:31N 37°48' W 122°17'0 0.0
2017-Mar-23 07:31N 37°48' W 122°17'0 0.0
2017-Mar-23 06:31N 37°48' W 122°17'0 0.0
2017-Mar-23 05:31N 37°48' W 122°17'0 0.0
2017-Mar-23 04:31N 37°48' W 122°17'0 0.0
2017-Mar-23 03:31N 37°48' W 122°17'0 0.0
2017-Mar-23 02:31N 37°48' W 122°17'0 0.0
2017-Mar-23 01:31N 37°48' W 122°17'0 0.0
2017-Mar-23 00:31N 37°48' W 122°17'0 0.0
2017-Mar-22 23:31N 37°48' W 122°17'0 0.0
2017-Mar-22 22:31N 37°48' W 122°17'0 0.0
2017-Mar-22 21:31N 37°48' W 122°17'0 0.0
2017-Mar-22 20:31N 37°48' W 122°17'0 0.0
2017-Mar-22 19:31N 37°48' W 122°17'4 4.4
2017-Mar-22 18:33N 37°50' W 122°22'5 5.5
2017-Mar-22 17:33N 37°55' W 122°22'0 0.0
2017-Mar-22 16:33N 37°55' W 122°22'0 0.4
2017-Mar-22 15:33N 37°55' W 122°22'6 6.1
2017-Mar-22 14:33N 37°49' W 122°21'3 3.2
2017-Mar-22 13:31N 37°48' W 122°17'0 0.0
2017-Mar-22 12:31N 37°48' W 122°17'0 0.0
2017-Mar-22 11:31N 37°48' W 122°17'0 0.0
2017-Mar-22 10:31N 37°48' W 122°17'0 0.0
2017-Mar-22 09:31N 37°48' W 122°17'0 0.1
2017-Mar-22 08:31N 37°48' W 122°17'0 0.1
2017-Mar-22 07:31N 37°48' W 122°17'0 0.0
2017-Mar-22 06:31N 37°48' W 122°17'0 0.0
2017-Mar-22 05:31N 37°48' W 122°17'0 0.0
2017-Mar-22 04:31N 37°48' W 122°17'0 0.0
2017-Mar-22 03:31N 37°48' W 122°17'0 0.0
2017-Mar-22 02:25N 37°48' W 122°17'0 0.0
2017-Mar-22 01:34N 37°48' W 122°17'0 0.0
2017-Mar-22 00:34N 37°48' W 122°17'0 0.0
2017-Mar-21 23:33N 37°48' W 122°17'0 0.0
2017-Mar-21 22:33N 37°48' W 122°17'0 0.0
2017-Mar-21 21:33N 37°48' W 122°17'0 0.0
2017-Mar-21 20:33N 37°48' W 122°17'0 0.0
2017-Mar-21 19:33N 37°48' W 122°17'0 0.0
2017-Mar-21 18:33N 37°48' W 122°17'0 0.0
2017-Mar-21 17:30N 37°48' W 122°17'0 0.0
2017-Mar-21 16:33N 37°48' W 122°17'0 0.0
2017-Mar-21 15:30N 37°48' W 122°17'0 0.0
2017-Mar-21 14:33N 37°48' W 122°17'0 0.0
2017-Mar-21 13:33N 37°48' W 122°17'0 0.0
2017-Mar-21 12:33N 37°48' W 122°17'0 0.0
2017-Mar-21 11:33N 37°48' W 122°17'0 0.0
2017-Mar-21 10:33N 37°48' W 122°17'0 0.0
2017-Mar-21 09:33N 37°48' W 122°17'0 0.0
2017-Mar-21 08:33N 37°48' W 122°17'0 0.0
2017-Mar-21 07:33N 37°48' W 122°17'0 0.0
2017-Mar-21 06:33N 37°48' W 122°17'0 0.0
2017-Mar-21 05:33N 37°48' W 122°17'0 0.0
2017-Mar-21 04:33N 37°48' W 122°17'0 0.0
2017-Mar-21 03:33N 37°48' W 122°17'0 0.0
2017-Mar-21 02:33N 37°48' W 122°17'0 0.0
2017-Mar-21 01:33N 37°48' W 122°17'0 0.0
2017-Mar-21 00:33N 37°48' W 122°17'0 0.0
2017-Mar-20 23:33N 37°48' W 122°17'0 0.0
2017-Mar-20 22:33N 37°48' W 122°17'0 0.0
2017-Mar-20 21:33N 37°48' W 122°17'0 0.0
2017-Mar-20 20:33N 37°48' W 122°17'0 0.0
2017-Mar-20 19:33N 37°48' W 122°17'0 0.0
2017-Mar-20 18:33N 37°48' W 122°17'0 0.0
2017-Mar-20 17:33N 37°48' W 122°17'0 0.0
2017-Mar-20 16:33N 37°48' W 122°17'0 0.0
2017-Mar-20 15:33N 37°48' W 122°17'0 0.0
2017-Mar-20 14:33N 37°48' W 122°17'0 0.0
2017-Mar-20 13:32N 37°48' W 122°17'0 0.0
2017-Mar-20 12:32N 37°48' W 122°17'2 2.5
2017-Mar-20 11:33N 37°48' W 122°20'2 2.2
2017-Mar-20 10:33N 37°46' W 122°21'0 0.0
2017-Mar-20 09:33N 37°46' W 122°21'0 0.2
2017-Mar-20 08:33N 37°46' W 122°21'0 0.1
2017-Mar-20 07:33N 37°46' W 122°22'0 0.0
2017-Mar-20 06:34N 37°46' W 122°22'1 0.6
2017-Mar-20 05:33N 37°47' W 122°22'4 3.5
2017-Mar-20 04:31N 37°48' W 122°17'0 0.0
2017-Mar-20 03:31N 37°48' W 122°17'0 0.0
2017-Mar-20 02:31N 37°48' W 122°17'0 0.0
2017-Mar-20 01:31N 37°48' W 122°17'0 0.0
2017-Mar-20 00:31N 37°48' W 122°17'0 0.0
2017-Mar-19 23:31N 37°48' W 122°17'0 0.0
2017-Mar-19 22:31N 37°48' W 122°17'0 0.0
2017-Mar-19 21:31N 37°48' W 122°17'0 0.0
2017-Mar-19 20:31N 37°48' W 122°17'0 0.0
2017-Mar-19 19:34N 37°48' W 122°17'0 0.0
2017-Mar-19 18:31N 37°48' W 122°17'0 0.0
2017-Mar-19 17:31N 37°48' W 122°17'0 0.0
2017-Mar-19 16:33N 37°48' W 122°17'0 0.0
2017-Mar-19 15:33N 37°48' W 122°17'0 0.0
2017-Mar-19 14:33N 37°48' W 122°17'0 0.0
2017-Mar-19 13:33N 37°48' W 122°17'0 0.0
2017-Mar-19 12:33N 37°48' W 122°17'0 0.0
2017-Mar-19 11:33N 37°48' W 122°17'0 0.0
2017-Mar-19 10:33N 37°48' W 122°17'0 0.0
2017-Mar-19 09:33N 37°48' W 122°17'0 0.0
2017-Mar-19 08:33N 37°48' W 122°17'0 0.0
2017-Mar-19 07:33N 37°48' W 122°17'0 0.0
2017-Mar-19 06:33N 37°48' W 122°17'0 0.0
2017-Mar-19 05:33N 37°48' W 122°17'0 0.0
2017-Mar-19 04:33N 37°48' W 122°17'0 0.0
2017-Mar-19 03:33N 37°48' W 122°17'0 0.0
2017-Mar-19 02:33N 37°48' W 122°17'0 0.0
2017-Mar-19 01:33N 37°48' W 122°17'0 0.0
2017-Mar-19 00:33N 37°48' W 122°17'0 0.0
2017-Mar-18 23:33N 37°48' W 122°17'0 0.0
2017-Mar-18 22:33N 37°48' W 122°17'0 0.0
2017-Mar-18 21:30N 37°48' W 122°17'0 0.0
2017-Mar-18 20:33N 37°48' W 122°17'0 0.0
2017-Mar-18 19:33N 37°48' W 122°17'0 0.0
2017-Mar-18 18:33N 37°48' W 122°17'0 0.0
2017-Mar-18 17:33N 37°48' W 122°17'0 0.0
2017-Mar-18 16:33N 37°48' W 122°17'0 0.0
2017-Mar-18 15:33N 37°48' W 122°17'0 0.0
2017-Mar-18 14:33N 37°48' W 122°17'0 0.0
2017-Mar-18 13:33N 37°48' W 122°17'0 0.0
2017-Mar-18 12:33N 37°48' W 122°17'0 0.0
2017-Mar-18 11:33N 37°48' W 122°17'0 0.0
2017-Mar-18 10:33N 37°48' W 122°17'0 0.0
2017-Mar-18 09:32N 37°48' W 122°17'0 0.0
2017-Mar-18 08:33N 37°48' W 122°17'0 0.0
2017-Mar-18 07:32N 37°48' W 122°17'0 0.0
2017-Mar-18 06:32N 37°48' W 122°17'0 0.0
2017-Mar-18 05:32N 37°48' W 122°17'0 0.0
2017-Mar-18 04:32N 37°48' W 122°17'0 0.0
2017-Mar-18 03:32N 37°48' W 122°17'0 0.0
2017-Mar-18 02:32N 37°48' W 122°17'0 0.0
2017-Mar-18 01:32N 37°48' W 122°17'0 0.0
2017-Mar-18 00:32N 37°48' W 122°17'0 0.0
2017-Mar-17 23:32N 37°48' W 122°17'0 0.0
2017-Mar-17 22:32N 37°48' W 122°17'0 0.0
2017-Mar-17 21:32N 37°48' W 122°17'0 0.0
2017-Mar-17 20:32N 37°48' W 122°17'0 0.0
2017-Mar-17 19:32N 37°48' W 122°17'0 0.1
2017-Mar-17 18:33N 37°48' W 122°17'7 7.1
2017-Mar-17 17:34N 37°52' W 122°24'9 9.3
2017-Mar-17 16:33N 38°01' W 122°23'6 5.9
2017-Mar-17 15:33N 38°03' W 122°16'0 0.0
2017-Mar-17 14:33N 38°03' W 122°16'0 0.0
2017-Mar-17 13:33N 38°03' W 122°16'0 0.0
2017-Mar-17 12:33N 38°03' W 122°16'0 0.0
2017-Mar-17 11:33N 38°03' W 122°16'0 0.0
2017-Mar-17 10:33N 38°03' W 122°16'0 0.0
2017-Mar-17 09:33N 38°03' W 122°16'0 0.0
2017-Mar-17 08:33N 38°03' W 122°16'0 0.0
2017-Mar-17 07:33N 38°03' W 122°16'0 0.0
2017-Mar-17 06:33N 38°03' W 122°16'0 0.0
2017-Mar-17 05:33N 38°03' W 122°16'0 0.0
2017-Mar-17 04:33N 38°03' W 122°16'  

Dump ship's entire track history